Minnesota Lake, Minnesota
Current Conditions -  °F | °C
As of 10:34 PM on Saturday 22 Nov 2014 (Local Time) from KACQ Reporting Station
Haze Haze  
Wind Chill:   Ceiling: 1300
Heat Index:   Visibility: 5mi
Dew Point:   Wind: 17mph
Humidity: 87%   Direction: 170°S
Pressure: 29.54"   Gusts: 21mph
Location:  43.84°N, 93.83°W
Report Text: KACQ 230434Z AUTO 17015G18KT 5SM BR SCT008 BKN013 OVC019 07/05 A2954 RMK AO2
Loading
Personal Weather Stations






























Interactive Weather Map New forecast layout! Learn more

10-Day Weather Forecast

Advertisements
Track Severe Weather on mobile